sensor_id;sensor_type;location;lat;lon;timestamp;P1;durP1;ratioP1;P2;durP2;ratioP2
6354;SDS011;3210;48.708;9.030;2022-11-15T02:20:27;2.10;;;1.90;;
6354;SDS011;3210;48.708;9.030;2022-11-15T02:23:15;1.93;;;1.60;;
6354;SDS011;3210;48.708;9.030;2022-11-15T02:26:06;3.60;;;1.87;;
6354;SDS011;3210;48.708;9.030;2022-11-15T02:29:04;4.43;;;2.00;;
6354;SDS011;3210;48.708;9.030;2022-11-15T02:31:38;2.50;;;2.30;;
6354;SDS011;3210;48.708;9.030;2022-11-15T02:34:12;2.17;;;2.00;;
6354;SDS011;3210;48.708;9.030;2022-11-15T02:36:49;3.53;;;2.00;;
6354;SDS011;3210;48.708;9.030;2022-11-15T02:39:26;3.23;;;2.00;;
6354;SDS011;3210;48.708;9.030;2022-11-15T02:42:00;2.97;;;2.20;;
6354;SDS011;3210;48.708;9.030;2022-11-15T02:44:50;3.37;;;1.57;;
6354;SDS011;3210;48.708;9.030;2022-11-15T02:47:19;6.67;;;2.00;;
6354;SDS011;3210;48.708;9.030;2022-11-15T02:49:49;4.27;;;2.40;;
6354;SDS011;3210;48.708;9.030;2022-11-15T02:52:19;3.27;;;1.87;;
6354;SDS011;3210;48.708;9.030;2022-11-15T02:54:52;4.37;;;2.10;;
6354;SDS011;3210;48.708;9.030;2022-11-15T02:57:22;6.60;;;2.00;;
6354;SDS011;3210;48.708;9.030;2022-11-15T03:00:01;2.33;;;2.00;;
6354;SDS011;3210;48.708;9.030;2022-11-15T03:02:36;1.80;;;1.70;;
6354;SDS011;3210;48.708;9.030;2022-11-15T03:05:11;3.60;;;1.97;;
6354;SDS011;3210;48.708;9.030;2022-11-15T03:07:45;3.90;;;1.70;;
6354;SDS011;3210;48.708;9.030;2022-11-15T03:10:21;2.90;;;1.90;;
6354;SDS011;3210;48.708;9.030;2022-11-15T03:12:54;3.37;;;2.00;;
6354;SDS011;3210;48.708;9.030;2022-11-15T03:15:24;2.60;;;1.83;;
6354;SDS011;3210;48.708;9.030;2022-11-15T03:17:58;2.77;;;1.63;;
6354;SDS011;3210;48.708;9.030;2022-11-15T03:20:28;2.90;;;1.30;;
6354;SDS011;3210;48.708;9.030;2022-11-15T03:22:56;6.93;;;2.27;;
6354;SDS011;3210;48.708;9.030;2022-11-15T03:25:29;3.10;;;1.80;;
6354;SDS011;3210;48.708;9.030;2022-11-15T03:27:59;2.83;;;1.53;;
6354;SDS011;3210;48.708;9.030;2022-11-15T03:30:30;3.10;;;1.63;;
6354;SDS011;3210;48.708;9.030;2022-11-15T03:33:02;2.97;;;1.77;;
6354;SDS011;3210;48.708;9.030;2022-11-15T03:35:31;2.03;;;1.80;;
6354;SDS011;3210;48.708;9.030;2022-11-15T03:38:03;2.03;;;1.73;;
6354;SDS011;3210;48.708;9.030;2022-11-15T03:40:35;2.40;;;1.70;;
6354;SDS011;3210;48.708;9.030;2022-11-15T03:43:05;2.83;;;2.20;;
6354;SDS011;3210;48.708;9.030;2022-11-15T03:45:38;1.30;;;1.20;;
6354;SDS011;3210;48.708;9.030;2022-11-15T03:48:10;2.10;;;1.90;;
6354;SDS011;3210;48.708;9.030;2022-11-15T03:50:40;6.03;;;1.83;;
6354;SDS011;3210;48.708;9.030;2022-11-15T03:53:08;2.27;;;1.50;;
6354;SDS011;3210;48.708;9.030;2022-11-15T03:55:36;3.23;;;2.40;;
6354;SDS011;3210;48.708;9.030;2022-11-15T03:58:02;2.10;;;1.90;;
6354;SDS011;3210;48.708;9.030;2022-11-15T04:00:29;2.40;;;2.20;;
6354;SDS011;3210;48.708;9.030;2022-11-15T04:02:56;2.60;;;2.10;;
6354;SDS011;3210;48.708;9.030;2022-11-15T04:05:25;2.87;;;1.90;;
6354;SDS011;3210;48.708;9.030;2022-11-15T04:07:52;5.40;;;2.57;;
6354;SDS011;3210;48.708;9.030;2022-11-15T04:10:18;2.93;;;2.43;;
6354;SDS011;3210;48.708;9.030;2022-11-15T04:12:46;2.57;;;2.03;;
6354;SDS011;3210;48.708;9.030;2022-11-15T04:15:14;1.90;;;1.80;;
6354;SDS011;3210;48.708;9.030;2022-11-15T04:17:42;2.37;;;2.17;;
6354;SDS011;3210;48.708;9.030;2022-11-15T04:20:11;9.13;;;2.30;;
6354;SDS011;3210;48.708;9.030;2022-11-15T04:22:58;2.43;;;1.77;;
6354;SDS011;3210;48.708;9.030;2022-11-15T04:25:43;9.03;;;2.20;;
6354;SDS011;3210;48.708;9.030;2022-11-15T04:28:11;2.23;;;1.80;;
6354;SDS011;3210;48.708;9.030;2022-11-15T04:30:38;2.00;;;1.40;;
6354;SDS011;3210;48.708;9.030;2022-11-15T04:33:05;4.67;;;2.13;;
6354;SDS011;3210;48.708;9.030;2022-11-15T04:35:32;4.20;;;1.70;;
6354;SDS011;3210;48.708;9.030;2022-11-15T04:38:00;2.23;;;2.13;;
6354;SDS011;3210;48.708;9.030;2022-11-15T04:40:29;3.20;;;1.77;;
6354;SDS011;3210;48.708;9.030;2022-11-15T04:42:56;3.13;;;1.60;;
6354;SDS011;3210;48.708;9.030;2022-11-15T04:45:23;3.00;;;1.80;;
6354;SDS011;3210;48.708;9.030;2022-11-15T04:47:50;2.00;;;1.80;;
6354;SDS011;3210;48.708;9.030;2022-11-15T04:50:17;3.93;;;2.17;;
6354;SDS011;3210;48.708;9.030;2022-11-15T04:52:49;2.90;;;2.17;;
6354;SDS011;3210;48.708;9.030;2022-11-15T04:55:18;2.73;;;1.73;;
6354;SDS011;3210;48.708;9.030;2022-11-15T04:57:46;2.03;;;1.83;;
6354;SDS011;3210;48.708;9.030;2022-11-15T05:00:13;1.90;;;1.70;;
6354;SDS011;3210;48.708;9.030;2022-11-15T05:02:42;2.50;;;2.30;;
6354;SDS011;3210;48.708;9.030;2022-11-15T05:05:26;7.17;;;3.07;;
6354;SDS011;3210;48.708;9.030;2022-11-15T05:07:53;3.93;;;2.13;;
6354;SDS011;3210;48.708;9.030;2022-11-15T05:10:21;7.43;;;2.13;;
6354;SDS011;3210;48.708;9.030;2022-11-15T05:12:48;2.73;;;1.73;;
6354;SDS011;3210;48.708;9.030;2022-11-15T05:15:15;1.60;;;1.50;;
6354;SDS011;3210;48.708;9.030;2022-11-15T05:17:42;2.30;;;1.73;;
6354;SDS011;3210;48.708;9.030;2022-11-15T05:20:09;2.53;;;2.00;;
6354;SDS011;3210;48.708;9.030;2022-11-15T05:22:36;1.93;;;1.60;;
6354;SDS011;3210;48.708;9.030;2022-11-15T05:25:03;34.37;;;18.27;;
6354;SDS011;3210;48.708;9.030;2022-11-15T05:27:32;26.83;;;13.87;;
6354;SDS011;3210;48.708;9.030;2022-11-15T05:30:00;40.03;;;16.50;;
6354;SDS011;3210;48.708;9.030;2022-11-15T05:32:27;37.70;;;19.23;;
6354;SDS011;3210;48.708;9.030;2022-11-15T05:34:54;7.77;;;4.03;;
6354;SDS011;3210;48.708;9.030;2022-11-15T05:37:21;5.20;;;3.30;;
6354;SDS011;3210;48.708;9.030;2022-11-15T05:39:48;4.43;;;2.07;;
6354;SDS011;3210;48.708;9.030;2022-11-15T05:42:15;2.37;;;2.17;;
6354;SDS011;3210;48.708;9.030;2022-11-15T05:44:46;2.27;;;2.03;;
6354;SDS011;3210;48.708;9.030;2022-11-15T05:47:15;4.67;;;2.77;;
6354;SDS011;3210;48.708;9.030;2022-11-15T05:49:46;2.00;;;1.80;;
6354;SDS011;3210;48.708;9.030;2022-11-15T05:52:16;2.47;;;1.83;;
6354;SDS011;3210;48.708;9.030;2022-11-15T05:54:45;3.47;;;2.70;;
6354;SDS011;3210;48.708;9.030;2022-11-15T05:57:12;1.87;;;1.70;;
6354;SDS011;3210;48.708;9.030;2022-11-15T05:59:39;5.57;;;2.57;;
6354;SDS011;3210;48.708;9.030;2022-11-15T06:02:09;4.77;;;2.20;;
6354;SDS011;3210;48.708;9.030;2022-11-15T06:04:37;2.93;;;2.37;;
6354;SDS011;3210;48.708;9.030;2022-11-15T06:07:04;3.30;;;2.17;;
6354;SDS011;3210;48.708;9.030;2022-11-15T06:09:31;7.90;;;4.20;;
6354;SDS011;3210;48.708;9.030;2022-11-15T06:11:57;3.00;;;2.70;;
6354;SDS011;3210;48.708;9.030;2022-11-15T06:14:24;2.30;;;2.00;;
6354;SDS011;3210;48.708;9.030;2022-11-15T06:16:51;2.43;;;2.00;;
6354;SDS011;3210;48.708;9.030;2022-11-15T06:19:20;2.90;;;2.23;;
6354;SDS011;3210;48.708;9.030;2022-11-15T06:21:46;11.00;;;2.70;;
6354;SDS011;3210;48.708;9.030;2022-11-15T06:24:13;3.60;;;2.47;;
6354;SDS011;3210;48.708;9.030;2022-11-15T06:26:40;9.07;;;6.17;;
6354;SDS011;3210;48.708;9.030;2022-11-15T06:29:07;4.93;;;4.27;;
6354;SDS011;3210;48.708;9.030;2022-11-15T06:31:34;4.03;;;2.87;;
6354;SDS011;3210;48.708;9.030;2022-11-15T06:34:02;13.73;;;4.57;;
6354;SDS011;3210;48.708;9.030;2022-11-15T06:36:30;4.80;;;2.97;;
6354;SDS011;3210;48.708;9.030;2022-11-15T06:38:57;8.67;;;5.40;;
6354;SDS011;3210;48.708;9.030;2022-11-15T06:41:24;9.37;;;4.97;;
6354;SDS011;3210;48.708;9.030;2022-11-15T06:43:51;7.23;;;4.00;;
6354;SDS011;3210;48.708;9.030;2022-11-15T06:46:18;4.50;;;3.20;;
6354;SDS011;3210;48.708;9.030;2022-11-15T06:48:45;4.53;;;2.20;;
6354;SDS011;3210;48.708;9.030;2022-11-15T06:51:12;4.90;;;2.53;;
6354;SDS011;3210;48.708;9.030;2022-11-15T06:53:41;2.00;;;1.80;;
6354;SDS011;3210;48.708;9.030;2022-11-15T06:56:08;4.87;;;2.27;;
6354;SDS011;3210;48.708;9.030;2022-11-15T06:58:35;3.63;;;2.40;;
6354;SDS011;3210;48.708;9.030;2022-11-15T07:01:03;2.10;;;1.77;;
6354;SDS011;3210;48.708;9.030;2022-11-15T07:03:33;2.53;;;2.03;;
6354;SDS011;3210;48.708;9.030;2022-11-15T07:06:01;3.13;;;2.10;;
6354;SDS011;3210;48.708;9.030;2022-11-15T07:08:28;6.10;;;2.60;;
6354;SDS011;3210;48.708;9.030;2022-11-15T07:10:59;4.63;;;1.77;;
6354;SDS011;3210;48.708;9.030;2022-11-15T07:13:27;2.53;;;1.63;;
6354;SDS011;3210;48.708;9.030;2022-11-15T07:15:58;3.90;;;2.17;;
6354;SDS011;3210;48.708;9.030;2022-11-15T07:18:28;1.57;;;1.47;;
6354;SDS011;3210;48.708;9.030;2022-11-15T07:20:55;2.30;;;1.60;;
6354;SDS011;3210;48.708;9.030;2022-11-15T07:23:26;3.83;;;2.30;;
6354;SDS011;3210;48.708;9.030;2022-11-15T07:25:53;1.93;;;1.77;;
6354;SDS011;3210;48.708;9.030;2022-11-15T07:28:23;2.10;;;1.97;;
6354;SDS011;3210;48.708;9.030;2022-11-15T07:30:50;7.93;;;2.10;;
6354;SDS011;3210;48.708;9.030;2022-11-15T07:33:17;4.43;;;2.10;;
6354;SDS011;3210;48.708;9.030;2022-11-15T07:35:44;2.80;;;1.77;;
6354;SDS011;3210;48.708;9.030;2022-11-15T07:38:14;2.30;;;2.10;;
6354;SDS011;3210;48.708;9.030;2022-11-15T07:40:44;7.20;;;2.60;;
6354;SDS011;3210;48.708;9.030;2022-11-15T07:43:12;2.23;;;1.60;;
6354;SDS011;3210;48.708;9.030;2022-11-15T07:45:41;1.90;;;1.70;;
6354;SDS011;3210;48.708;9.030;2022-11-15T07:48:11;1.83;;;1.70;;
6354;SDS011;3210;48.708;9.030;2022-11-15T07:50:40;2.30;;;2.03;;
6354;SDS011;3210;48.708;9.030;2022-11-15T07:53:08;3.03;;;1.90;;
6354;SDS011;3210;48.708;9.030;2022-11-15T07:55:36;3.10;;;1.87;;
6354;SDS011;3210;48.708;9.030;2022-11-15T07:58:06;2.83;;;2.03;;
6354;SDS011;3210;48.708;9.030;2022-11-15T08:00:35;2.40;;;1.53;;
6354;SDS011;3210;48.708;9.030;2022-11-15T08:03:05;2.60;;;1.70;;
6354;SDS011;3210;48.708;9.030;2022-11-15T08:05:33;3.90;;;2.20;;
6354;SDS011;3210;48.708;9.030;2022-11-15T08:08:00;1.60;;;1.50;;
6354;SDS011;3210;48.708;9.030;2022-11-15T08:10:27;6.43;;;2.93;;
6354;SDS011;3210;48.708;9.030;2022-11-15T08:12:58;2.83;;;1.97;;
6354;SDS011;3210;48.708;9.030;2022-11-15T08:15:25;1.50;;;1.20;;
6354;SDS011;3210;48.708;9.030;2022-11-15T08:17:53;3.57;;;1.60;;
6354;SDS011;3210;48.708;9.030;2022-11-15T08:20:22;4.23;;;2.07;;
6354;SDS011;3210;48.708;9.030;2022-11-15T08:22:50;1.90;;;1.37;;
6354;SDS011;3210;48.708;9.030;2022-11-15T08:25:17;3.20;;;1.70;;
6354;SDS011;3210;48.708;9.030;2022-11-15T08:27:44;1.60;;;1.50;;
6354;SDS011;3210;48.708;9.030;2022-11-15T08:30:11;4.80;;;1.57;;
6354;SDS011;3210;48.708;9.030;2022-11-15T08:32:40;5.33;;;1.43;;
6354;SDS011;3210;48.708;9.030;2022-11-15T08:35:07;7.03;;;1.63;;
6354;SDS011;3210;48.708;9.030;2022-11-15T08:37:36;3.63;;;1.20;;
6354;SDS011;3210;48.708;9.030;2022-11-15T08:40:03;3.20;;;2.03;;
6354;SDS011;3210;48.708;9.030;2022-11-15T08:42:30;4.70;;;1.20;;
6354;SDS011;3210;48.708;9.030;2022-11-15T08:44:57;1.50;;;0.90;;
6354;SDS011;3210;48.708;9.030;2022-11-15T08:47:24;2.10;;;1.53;;
6354;SDS011;3210;48.708;9.030;2022-11-15T08:49:51;1.60;;;1.37;;
6354;SDS011;3210;48.708;9.030;2022-11-15T08:52:18;6.47;;;3.80;;
6354;SDS011;3210;48.708;9.030;2022-11-15T08:54:46;1.13;;;1.03;;
6354;SDS011;3210;48.708;9.030;2022-11-15T08:57:13;2.07;;;1.37;;
6354;SDS011;3210;48.708;9.030;2022-11-15T08:59:40;1.50;;;1.40;;
6354;SDS011;3210;48.708;9.030;2022-11-15T09:02:10;10.27;;;2.00;;
6354;SDS011;3210;48.708;9.030;2022-11-15T09:04:39;3.80;;;1.97;;
6354;SDS011;3210;48.708;9.030;2022-11-15T09:07:07;3.00;;;2.30;;
6354;SDS011;3210;48.708;9.030;2022-11-15T09:09:34;1.83;;;1.50;;
6354;SDS011;3210;48.708;9.030;2022-11-15T09:12:02;1.57;;;1.43;;
6354;SDS011;3210;48.708;9.030;2022-11-15T09:14:29;2.40;;;1.70;;
6354;SDS011;3210;48.708;9.030;2022-11-15T09:16:56;4.27;;;1.30;;
6354;SDS011;3210;48.708;9.030;2022-11-15T09:19:23;1.40;;;1.30;;
6354;SDS011;3210;48.708;9.030;2022-11-15T09:21:50;2.67;;;1.33;;
6354;SDS011;3210;48.708;9.030;2022-11-15T09:24:17;1.63;;;1.53;;
6354;SDS011;3210;48.708;9.030;2022-11-15T09:26:44;5.77;;;1.60;;
6354;SDS011;3210;48.708;9.030;2022-11-15T09:29:12;3.83;;;1.40;;
6354;SDS011;3210;48.708;9.030;2022-11-15T09:31:39;1.63;;;1.50;;
6354;SDS011;3210;48.708;9.030;2022-11-15T09:34:06;3.33;;;1.70;;
6354;SDS011;3210;48.708;9.030;2022-11-15T09:36:32;2.20;;;1.10;;
6354;SDS011;3210;48.708;9.030;2022-11-15T09:38:59;1.60;;;1.47;;
6354;SDS011;3210;48.708;9.030;2022-11-15T09:41:34;3.07;;;1.57;;
6354;SDS011;3210;48.708;9.030;2022-11-15T09:44:21;5.53;;;1.70;;
6354;SDS011;3210;48.708;9.030;2022-11-15T09:47:10;3.20;;;1.90;;
6354;SDS011;3210;48.708;9.030;2022-11-15T09:49:51;3.47;;;1.63;;
6354;SDS011;3210;48.708;9.030;2022-11-15T09:52:18;8.27;;;1.80;;
6354;SDS011;3210;48.708;9.030;2022-11-15T09:54:47;4.23;;;2.03;;
6354;SDS011;3210;48.708;9.030;2022-11-15T09:57:17;5.13;;;2.70;;
6354;SDS011;3210;48.708;9.030;2022-11-15T09:59:51;11.03;;;2.57;;
6354;SDS011;3210;48.708;9.030;2022-11-15T10:02:33;2.97;;;2.67;;
6354;SDS011;3210;48.708;9.030;2022-11-15T10:05:19;3.60;;;2.40;;
6354;SDS011;3210;48.708;9.030;2022-11-15T10:07:50;9.93;;;3.10;;
6354;SDS011;3210;48.708;9.030;2022-11-15T10:10:23;4.50;;;2.43;;
6354;SDS011;3210;48.708;9.030;2022-11-15T10:12:53;4.40;;;2.63;;
6354;SDS011;3210;48.708;9.030;2022-11-15T10:15:22;3.23;;;2.70;;
6354;SDS011;3210;48.708;9.030;2022-11-15T10:17:55;3.60;;;2.53;;
6354;SDS011;3210;48.708;9.030;2022-11-15T10:20:32;2.93;;;2.00;;
6354;SDS011;3210;48.708;9.030;2022-11-15T10:23:06;3.27;;;1.70;;
6354;SDS011;3210;48.708;9.030;2022-11-15T10:25:38;3.87;;;2.10;;
6354;SDS011;3210;48.708;9.030;2022-11-15T10:28:09;5.13;;;2.20;;
6354;SDS011;3210;48.708;9.030;2022-11-15T10:30:41;7.40;;;3.03;;
6354;SDS011;3210;48.708;9.030;2022-11-15T10:33:14;6.40;;;2.60;;
6354;SDS011;3210;48.708;9.030;2022-11-15T10:38:51;3.33;;;1.33;;
6354;SDS011;3210;48.708;9.030;2022-11-15T10:41:20;2.00;;;1.70;;
6354;SDS011;3210;48.708;9.030;2022-11-15T10:44:01;6.43;;;2.03;;
6354;SDS011;3210;48.708;9.030;2022-11-15T10:46:35;2.33;;;1.50;;
6354;SDS011;3210;48.708;9.030;2022-11-15T10:49:11;4.80;;;1.53;;
6354;SDS011;3210;48.708;9.030;2022-11-15T10:51:40;5.53;;;1.93;;
6354;SDS011;3210;48.708;9.030;2022-11-15T10:54:10;1.83;;;1.30;;
6354;SDS011;3210;48.708;9.030;2022-11-15T10:56:40;5.10;;;1.90;;
6354;SDS011;3210;48.708;9.030;2022-11-15T10:59:13;2.00;;;1.50;;
6354;SDS011;3210;48.708;9.030;2022-11-15T11:01:47;2.40;;;1.80;;
6354;SDS011;3210;48.708;9.030;2022-11-15T11:04:14;3.10;;;1.80;;
6354;SDS011;3210;48.708;9.030;2022-11-15T11:06:47;2.90;;;1.17;;
6354;SDS011;3210;48.708;9.030;2022-11-15T11:09:23;1.83;;;1.53;;
6354;SDS011;3210;48.708;9.030;2022-11-15T11:11:54;7.90;;;1.20;;
6354;SDS011;3210;48.708;9.030;2022-11-15T11:14:22;2.97;;;1.97;;
6354;SDS011;3210;48.708;9.030;2022-11-15T11:16:54;8.73;;;1.90;;
6354;SDS011;3210;48.708;9.030;2022-11-15T11:19:30;3.20;;;1.50;;
6354;SDS011;3210;48.708;9.030;2022-11-15T11:22:21;3.63;;;1.40;;
6354;SDS011;3210;48.708;9.030;2022-11-15T11:24:55;2.00;;;0.97;;
6354;SDS011;3210;48.708;9.030;2022-11-15T11:27:36;4.80;;;2.73;;
6354;SDS011;3210;48.708;9.030;2022-11-15T11:30:10;7.10;;;2.67;;
6354;SDS011;3210;48.708;9.030;2022-11-15T11:32:56;5.70;;;2.97;;
6354;SDS011;3210;48.708;9.030;2022-11-15T11:35:45;3.57;;;1.97;;
6354;SDS011;3210;48.708;9.030;2022-11-15T11:38:24;3.93;;;2.10;;
6354;SDS011;3210;48.708;9.030;2022-11-15T11:41:04;2.10;;;1.40;;
6354;SDS011;3210;48.708;9.030;2022-11-15T11:43:41;2.77;;;2.03;;
6354;SDS011;3210;48.708;9.030;2022-11-15T11:46:26;2.60;;;1.53;;
6354;SDS011;3210;48.708;9.030;2022-11-15T11:49:15;3.00;;;1.73;;
6354;SDS011;3210;48.708;9.030;2022-11-15T11:51:49;5.13;;;2.00;;
6354;SDS011;3210;48.708;9.030;2022-11-15T11:54:20;1.47;;;1.27;;
6354;SDS011;3210;48.708;9.030;2022-11-15T11:56:51;1.73;;;0.87;;
6354;SDS011;3210;48.708;9.030;2022-11-15T11:59:25;2.00;;;1.30;;
6354;SDS011;3210;48.708;9.030;2022-11-15T12:01:58;3.30;;;0.93;;
6354;SDS011;3210;48.708;9.030;2022-11-15T12:04:36;1.67;;;1.10;;
6354;SDS011;3210;48.708;9.030;2022-11-15T12:07:07;3.10;;;1.40;;
6354;SDS011;3210;48.708;9.030;2022-11-15T12:09:41;10.33;;;1.43;;
6354;SDS011;3210;48.708;9.030;2022-11-15T12:12:11;0.97;;;0.80;;
6354;SDS011;3210;48.708;9.030;2022-11-15T12:14:45;2.10;;;1.03;;
6354;SDS011;3210;48.708;9.030;2022-11-15T12:17:17;1.10;;;1.00;;
6354;SDS011;3210;48.708;9.030;2022-11-15T12:19:50;1.77;;;1.50;;
6354;SDS011;3210;48.708;9.030;2022-11-15T12:22:19;1.33;;;1.23;;
6354;SDS011;3210;48.708;9.030;2022-11-15T12:24:49;2.40;;;1.67;;
6354;SDS011;3210;48.708;9.030;2022-11-15T12:27:20;1.13;;;1.03;;
6354;SDS011;3210;48.708;9.030;2022-11-15T12:29:52;10.77;;;6.07;;
6354;SDS011;3210;48.708;9.030;2022-11-15T12:32:24;6.13;;;1.33;;
6354;SDS011;3210;48.708;9.030;2022-11-15T12:34:55;2.50;;;1.70;;
6354;SDS011;3210;48.708;9.030;2022-11-15T12:37:34;4.67;;;1.17;;
6354;SDS011;3210;48.708;9.030;2022-11-15T12:40:21;2.73;;;1.17;;
6354;SDS011;3210;48.708;9.030;2022-11-15T12:42:57;4.17;;;2.90;;
6354;SDS011;3210;48.708;9.030;2022-11-15T12:45:39;8.00;;;3.87;;
6354;SDS011;3210;48.708;9.030;2022-11-15T12:57:25;1.73;;;0.70;;
6354;SDS011;3210;48.708;9.030;2022-11-15T13:03:21;2.27;;;1.50;;
6354;SDS011;3210;48.708;9.030;2022-11-15T13:05:57;3.27;;;1.07;;
6354;SDS011;3210;48.708;9.030;2022-11-15T13:08:35;14.23;;;1.30;;
6354;SDS011;3210;48.708;9.030;2022-11-15T13:17:26;2.13;;;1.93;;
6354;SDS011;3210;48.708;9.030;2022-11-15T13:22:47;1.30;;;0.90;;
6354;SDS011;3210;48.708;9.030;2022-11-15T13:25:22;4.90;;;1.90;;
6354;SDS011;3210;48.708;9.030;2022-11-15T13:28:10;6.60;;;1.47;;
6354;SDS011;3210;48.708;9.030;2022-11-15T13:30:48;1.80;;;1.40;;
6354;SDS011;3210;48.708;9.030;2022-11-15T13:33:17;1.10;;;1.00;;
6354;SDS011;3210;48.708;9.030;2022-11-15T13:35:46;5.10;;;1.73;;
6354;SDS011;3210;48.708;9.030;2022-11-15T13:38:18;1.70;;;1.30;;
6354;SDS011;3210;48.708;9.030;2022-11-15T13:40:51;2.43;;;1.30;;
6354;SDS011;3210;48.708;9.030;2022-11-15T13:43:25;1.57;;;1.30;;
6354;SDS011;3210;48.708;9.030;2022-11-15T13:46:04;1.37;;;1.27;;
6354;SDS011;3210;48.708;9.030;2022-11-15T13:48:32;2.50;;;1.60;;
6354;SDS011;3210;48.708;9.030;2022-11-15T13:51:00;2.40;;;1.67;;
6354;SDS011;3210;48.708;9.030;2022-11-15T13:53:27;4.40;;;2.07;;
6354;SDS011;3210;48.708;9.030;2022-11-15T13:55:56;3.57;;;2.70;;
6354;SDS011;3210;48.708;9.030;2022-11-15T13:58:26;3.20;;;2.17;;
6354;SDS011;3210;48.708;9.030;2022-11-15T14:00:58;1.93;;;1.60;;
6354;SDS011;3210;48.708;9.030;2022-11-15T14:03:27;3.53;;;2.60;;
6354;SDS011;3210;48.708;9.030;2022-11-15T14:06:02;5.60;;;3.20;;
6354;SDS011;3210;48.708;9.030;2022-11-15T14:08:31;3.10;;;2.53;;
6354;SDS011;3210;48.708;9.030;2022-11-15T14:11:05;11.17;;;5.57;;
6354;SDS011;3210;48.708;9.030;2022-11-15T14:13:36;3.67;;;2.60;;
6354;SDS011;3210;48.708;9.030;2022-11-15T14:16:12;1.67;;;1.20;;
6354;SDS011;3210;48.708;9.030;2022-11-15T14:18:45;5.13;;;1.60;;
6354;SDS011;3210;48.708;9.030;2022-11-15T14:21:13;5.20;;;2.10;;
6354;SDS011;3210;48.708;9.030;2022-11-15T14:23:40;2.60;;;1.60;;
6354;SDS011;3210;48.708;9.030;2022-11-15T14:26:11;4.43;;;1.80;;
6354;SDS011;3210;48.708;9.030;2022-11-15T14:28:54;3.83;;;1.90;;
6354;SDS011;3210;48.708;9.030;2022-11-15T14:31:21;1.90;;;1.60;;
6354;SDS011;3210;48.708;9.030;2022-11-15T14:33:48;3.00;;;1.77;;
6354;SDS011;3210;48.708;9.030;2022-11-15T14:36:16;4.53;;;1.23;;
6354;SDS011;3210;48.708;9.030;2022-11-15T14:38:44;3.13;;;1.60;;
6354;SDS011;3210;48.708;9.030;2022-11-15T14:41:17;1.70;;;1.33;;
6354;SDS011;3210;48.708;9.030;2022-11-15T14:43:46;4.40;;;1.83;;
6354;SDS011;3210;48.708;9.030;2022-11-15T14:46:16;2.20;;;1.50;;
6354;SDS011;3210;48.708;9.030;2022-11-15T14:48:43;9.13;;;1.83;;
6354;SDS011;3210;48.708;9.030;2022-11-15T14:51:14;2.10;;;1.63;;
6354;SDS011;3210;48.708;9.030;2022-11-15T14:53:43;2.73;;;1.53;;
6354;SDS011;3210;48.708;9.030;2022-11-15T14:56:11;17.03;;;9.60;;
6354;SDS011;3210;48.708;9.030;2022-11-15T14:58:38;2.50;;;1.27;;
6354;SDS011;3210;48.708;9.030;2022-11-15T15:01:09;1.53;;;1.37;;
6354;SDS011;3210;48.708;9.030;2022-11-15T15:03:40;1.30;;;1.20;;
6354;SDS011;3210;48.708;9.030;2022-11-15T15:06:09;5.33;;;1.63;;
6354;SDS011;3210;48.708;9.030;2022-11-15T15:08:37;2.37;;;1.20;;
6354;SDS011;3210;48.708;9.030;2022-11-15T15:11:07;3.80;;;2.07;;
6354;SDS011;3210;48.708;9.030;2022-11-15T15:13:39;14.77;;;2.00;;
6354;SDS011;3210;48.708;9.030;2022-11-15T15:16:06;2.90;;;2.10;;
6354;SDS011;3210;48.708;9.030;2022-11-15T15:18:33;4.40;;;1.70;;
6354;SDS011;3210;48.708;9.030;2022-11-15T15:21:02;5.93;;;1.83;;
6354;SDS011;3210;48.708;9.030;2022-11-15T15:23:32;2.60;;;1.50;;
6354;SDS011;3210;48.708;9.030;2022-11-15T15:26:00;3.37;;;1.40;;
6354;SDS011;3210;48.708;9.030;2022-11-15T15:28:27;2.20;;;1.40;;
6354;SDS011;3210;48.708;9.030;2022-11-15T15:30:54;1.77;;;1.50;;
6354;SDS011;3210;48.708;9.030;2022-11-15T15:33:21;5.77;;;3.33;;
6354;SDS011;3210;48.708;9.030;2022-11-15T15:35:48;7.00;;;2.40;;
6354;SDS011;3210;48.708;9.030;2022-11-15T15:38:16;6.30;;;2.23;;
6354;SDS011;3210;48.708;9.030;2022-11-15T15:40:43;2.67;;;1.93;;
6354;SDS011;3210;48.708;9.030;2022-11-15T15:43:10;2.03;;;1.83;;
6354;SDS011;3210;48.708;9.030;2022-11-15T15:45:37;3.50;;;2.20;;
6354;SDS011;3210;48.708;9.030;2022-11-15T15:48:05;2.80;;;1.70;;
6354;SDS011;3210;48.708;9.030;2022-11-15T15:50:35;4.77;;;1.93;;
6354;SDS011;3210;48.708;9.030;2022-11-15T15:53:03;5.90;;;1.97;;
6354;SDS011;3210;48.708;9.030;2022-11-15T15:55:32;8.57;;;2.13;;
6354;SDS011;3210;48.708;9.030;2022-11-15T15:57:59;5.03;;;1.67;;
6354;SDS011;3210;48.708;9.030;2022-11-15T16:00:26;5.73;;;2.90;;
6354;SDS011;3210;48.708;9.030;2022-11-15T16:02:53;12.07;;;5.63;;
6354;SDS011;3210;48.708;9.030;2022-11-15T16:05:21;5.30;;;3.80;;
6354;SDS011;3210;48.708;9.030;2022-11-15T16:07:48;6.40;;;4.83;;
6354;SDS011;3210;48.708;9.030;2022-11-15T16:10:17;5.00;;;4.13;;
6354;SDS011;3210;48.708;9.030;2022-11-15T16:12:47;9.80;;;5.90;;
6354;SDS011;3210;48.708;9.030;2022-11-15T16:15:15;6.40;;;4.93;;
6354;SDS011;3210;48.708;9.030;2022-11-15T16:17:43;3.87;;;3.40;;
6354;SDS011;3210;48.708;9.030;2022-11-15T16:20:19;5.07;;;4.23;;
6354;SDS011;3210;48.708;9.030;2022-11-15T16:22:55;10.03;;;6.10;;
6354;SDS011;3210;48.708;9.030;2022-11-15T16:25:22;5.40;;;4.90;;
6354;SDS011;3210;48.708;9.030;2022-11-15T16:27:51;4.47;;;3.20;;
6354;SDS011;3210;48.708;9.030;2022-11-15T16:30:18;4.10;;;3.20;;
6354;SDS011;3210;48.708;9.030;2022-11-15T16:32:47;5.20;;;4.40;;
6354;SDS011;3210;48.708;9.030;2022-11-15T16:35:14;9.27;;;4.63;;
6354;SDS011;3210;48.708;9.030;2022-11-15T16:37:42;2.80;;;2.40;;
6354;SDS011;3210;48.708;9.030;2022-11-15T16:40:15;9.73;;;3.40;;
6354;SDS011;3210;48.708;9.030;2022-11-15T16:42:48;7.40;;;3.70;;
6354;SDS011;3210;48.708;9.030;2022-11-15T16:45:17;5.47;;;3.17;;
6354;SDS011;3210;48.708;9.030;2022-11-15T16:47:44;7.67;;;3.60;;
6354;SDS011;3210;48.708;9.030;2022-11-15T16:50:13;13.83;;;3.67;;
6354;SDS011;3210;48.708;9.030;2022-11-15T16:52:48;9.00;;;3.80;;
6354;SDS011;3210;48.708;9.030;2022-11-15T16:55:16;3.83;;;2.23;;
6354;SDS011;3210;48.708;9.030;2022-11-15T16:57:42;8.93;;;3.77;;
6354;SDS011;3210;48.708;9.030;2022-11-15T17:00:11;11.53;;;2.37;;
6354;SDS011;3210;48.708;9.030;2022-11-15T17:02:40;22.63;;;9.97;;
6354;SDS011;3210;48.708;9.030;2022-11-15T17:05:08;17.90;;;8.20;;
6354;SDS011;3210;48.708;9.030;2022-11-15T17:07:35;7.30;;;3.77;;
6354;SDS011;3210;48.708;9.030;2022-11-15T17:10:01;12.40;;;6.37;;
6354;SDS011;3210;48.708;9.030;2022-11-15T17:12:28;16.83;;;9.03;;
6354;SDS011;3210;48.708;9.030;2022-11-15T17:14:56;14.83;;;7.87;;
6354;SDS011;3210;48.708;9.030;2022-11-15T17:17:24;7.43;;;4.70;;
6354;SDS011;3210;48.708;9.030;2022-11-15T17:19:51;5.73;;;4.20;;
6354;SDS011;3210;48.708;9.030;2022-11-15T17:22:18;12.40;;;5.07;;
6354;SDS011;3210;48.708;9.030;2022-11-15T17:24:45;5.60;;;4.33;;
6354;SDS011;3210;48.708;9.030;2022-11-15T17:27:12;19.03;;;9.13;;
6354;SDS011;3210;48.708;9.030;2022-11-15T17:29:39;23.67;;;10.70;;
6354;SDS011;3210;48.708;9.030;2022-11-15T17:32:06;19.90;;;10.10;;
6354;SDS011;3210;48.708;9.030;2022-11-15T17:34:35;9.77;;;5.97;;
6354;SDS011;3210;48.708;9.030;2022-11-15T17:37:01;9.13;;;5.10;;
6354;SDS011;3210;48.708;9.030;2022-11-15T17:39:28;11.97;;;5.83;;
6354;SDS011;3210;48.708;9.030;2022-11-15T17:41:55;8.10;;;4.10;;
6354;SDS011;3210;48.708;9.030;2022-11-15T17:44:22;12.73;;;7.53;;
6354;SDS011;3210;48.708;9.030;2022-11-15T17:46:48;9.70;;;4.20;;
6354;SDS011;3210;48.708;9.030;2022-11-15T17:49:16;5.40;;;3.30;;
6354;SDS011;3210;48.708;9.030;2022-11-15T17:51:44;7.50;;;2.97;;
6354;SDS011;3210;48.708;9.030;2022-11-15T17:54:11;5.80;;;2.80;;
6354;SDS011;3210;48.708;9.030;2022-11-15T17:56:38;4.07;;;2.70;;
6354;SDS011;3210;48.708;9.030;2022-11-15T17:59:06;4.63;;;2.80;;
6354;SDS011;3210;48.708;9.030;2022-11-15T18:01:33;4.17;;;2.67;;
6354;SDS011;3210;48.708;9.030;2022-11-15T18:04:03;16.73;;;8.43;;
6354;SDS011;3210;48.708;9.030;2022-11-15T18:06:33;9.07;;;3.93;;
6354;SDS011;3210;48.708;9.030;2022-11-15T18:09:02;16.20;;;9.83;;
6354;SDS011;3210;48.708;9.030;2022-11-15T18:11:32;15.70;;;8.60;;
6354;SDS011;3210;48.708;9.030;2022-11-15T18:14:01;10.17;;;6.90;;
6354;SDS011;3210;48.708;9.030;2022-11-15T18:16:29;10.03;;;6.00;;
6354;SDS011;3210;48.708;9.030;2022-11-15T18:18:58;8.83;;;4.20;;